Time;durP1;ratioP1;P1;durP2;ratioP2;P2;SDS_P1;SDS_P2;PMS_P1;PMS_P2;Temp;Humidity;BMP_temperature;BMP_pressure;BME280_temperature;BME280_humidity;BME280_pressure;Samples;Min_cycle;Max_cycle;Signal;HPM_P1;HPM_P2
2024/03/20 00:01:50;;;;;;;;;;;8.60;81.40;;;;;;5095457;28;19970;-61
2024/03/20 00:04:17;;;;;;;;;;;8.50;81.30;;;;;;5098276;28;20381;-60
2024/03/20 00:06:50;;;;;;;;;;;8.60;81.20;;;;;;5093867;28;20259;-60
2024/03/20 00:09:24;;;;;;;;;;;8.60;81.20;;;;;;5095204;28;19924;-61
2024/03/20 00:11:58;;;;;;;;;;;8.50;81.20;;;;;;5097076;28;20304;-59
2024/03/20 00:14:31;;;;;;;;;;;8.50;81.30;;;;;;5096056;28;20008;-61
2024/03/20 00:17:07;;;;;;;;;;;8.40;81.20;;;;;;5096439;28;19942;-61
2024/03/20 00:19:41;;;;;;;;;;;8.40;81.20;;;;;;5096916;28;19931;-61
2024/03/20 00:22:14;;;;;;;;;;;8.30;81.20;;;;;;5091088;28;19935;-61
2024/03/20 00:24:48;;;;;;;;;;;8.30;81.30;;;;;;5095850;28;20371;-61
2024/03/20 00:27:22;;;;;;;;;;;8.30;81.30;;;;;;5097622;28;19928;-60
2024/03/20 00:29:55;;;;;;;;;;;8.30;81.10;;;;;;5090862;28;19935;-60
2024/03/20 00:32:29;;;;;;;;;;;8.30;81.10;;;;;;5096656;28;19928;-60
2024/03/20 00:35:46;;;;;;;;;;;8.30;81.10;;;;;;5098400;28;19927;-60
2024/03/20 00:38:20;;;;;;;;;;;8.20;81.10;;;;;;5097904;28;20603;-60
2024/03/20 00:40:54;;;;;;;;;;;8.20;81.40;;;;;;5097369;28;19935;-60
2024/03/20 00:43:27;;;;;;;;;;;8.10;81.40;;;;;;5097292;28;19967;-60
2024/03/20 00:46:00;;;;;;;;;;;8.20;81.30;;;;;;5096233;28;19928;-60
2024/03/20 00:48:26;;;;;;;;;;;8.10;81.30;;;;;;5093800;28;19923;-59
2024/03/20 00:51:00;;;;;;;;;;;8.10;81.40;;;;;;5098303;28;19924;-60
2024/03/20 00:53:33;;;;;;;;;;;8.10;81.40;;;;;;5096918;28;19947;-61
2024/03/20 00:56:14;;;;;;;;;;;8.00;81.50;;;;;;5097582;28;19982;-61
2024/03/20 00:58:48;;;;;;;;;;;8.00;81.50;;;;;;5096189;28;19928;-61
2024/03/20 01:01:21;;;;;;;;;;;8.00;81.40;;;;;;5093525;28;19925;-60
2024/03/20 01:03:54;;;;;;;;;;;8.00;81.50;;;;;;5097491;28;19928;-61
2024/03/20 01:06:27;;;;;;;;;;;8.00;81.60;;;;;;5097221;28;19939;-59
2024/03/20 01:09:00;;;;;;;;;;;8.00;81.70;;;;;;5098566;28;20361;-60
2024/03/20 01:11:34;;;;;;;;;;;8.00;81.70;;;;;;5084840;28;19923;-65
2024/03/20 01:14:01;;;;;;;;;;;8.00;81.80;;;;;;5093882;28;19939;-65
2024/03/20 01:16:34;;;;;;;;;;;7.90;81.70;;;;;;5090047;28;20036;-67
2024/03/20 01:19:07;;;;;;;;;;;7.90;81.80;;;;;;5095115;28;19931;-66
2024/03/20 01:21:40;;;;;;;;;;;7.90;81.70;;;;;;5091871;28;20129;-67
2024/03/20 01:24:13;;;;;;;;;;;7.80;81.90;;;;;;5091954;28;19924;-65
2024/03/20 01:26:47;;;;;;;;;;;7.80;81.90;;;;;;5096550;28;19924;-65
2024/03/20 01:29:21;;;;;;;;;;;7.80;81.90;;;;;;5098254;28;20328;-64
2024/03/20 01:31:54;;;;;;;;;;;7.80;81.90;;;;;;5099735;28;19924;-67
2024/03/20 01:34:27;;;;;;;;;;;7.80;81.70;;;;;;5093006;28;20010;-64
2024/03/20 01:37:00;;;;;;;;;;;7.80;81.80;;;;;;5097999;28;20286;-65
2024/03/20 01:39:33;;;;;;;;;;;7.70;81.80;;;;;;5092880;28;19995;-65
2024/03/20 01:42:07;;;;;;;;;;;7.70;81.70;;;;;;5097814;28;19924;-66
2024/03/20 01:44:41;;;;;;;;;;;7.70;81.70;;;;;;5100690;28;19964;-65
2024/03/20 01:47:14;;;;;;;;;;;7.70;81.70;;;;;;5099760;28;19961;-66
2024/03/20 01:49:48;;;;;;;;;;;7.70;81.80;;;;;;5100440;28;19923;-66
2024/03/20 01:52:21;;;;;;;;;;;7.70;81.80;;;;;;5093634;28;19928;-66
2024/03/20 01:54:54;;;;;;;;;;;7.70;81.80;;;;;;5095948;28;19937;-66
2024/03/20 01:57:29;;;;;;;;;;;7.60;81.80;;;;;;5099931;28;20015;-66
2024/03/20 02:00:03;;;;;;;;;;;7.60;81.80;;;;;;5098921;28;20383;-65
2024/03/20 02:02:38;;;;;;;;;;;7.50;81.90;;;;;;5097520;28;20370;-63
2024/03/20 02:05:12;;;;;;;;;;;7.50;81.90;;;;;;5095467;28;20982;-66
2024/03/20 02:07:53;;;;;;;;;;;7.50;81.90;;;;;;5089352;28;19928;-66
2024/03/20 02:10:26;;;;;;;;;;;7.50;81.90;;;;;;5095191;28;20410;-65
2024/03/20 02:13:03;;;;;;;;;;;7.50;82.00;;;;;;5098128;28;19928;-64
2024/03/20 02:15:37;;;;;;;;;;;7.50;82.00;;;;;;5094565;28;19936;-67
2024/03/20 02:18:10;;;;;;;;;;;7.40;81.90;;;;;;5096437;28;20340;-67
2024/03/20 02:20:43;;;;;;;;;;;7.40;82.00;;;;;;5099717;28;20011;-67
2024/03/20 02:23:17;;;;;;;;;;;7.40;82.00;;;;;;5097278;28;19955;-61
2024/03/20 02:25:51;;;;;;;;;;;7.40;81.90;;;;;;5100033;28;19924;-62
2024/03/20 02:28:24;;;;;;;;;;;7.40;82.10;;;;;;5096841;28;20016;-60
2024/03/20 02:30:57;;;;;;;;;;;7.40;82.00;;;;;;5100531;28;19967;-59
2024/03/20 02:33:30;;;;;;;;;;;7.40;82.00;;;;;;5100449;28;19928;-60
2024/03/20 02:36:03;;;;;;;;;;;7.40;82.10;;;;;;5099835;28;19928;-60
2024/03/20 02:38:39;;;;;;;;;;;7.30;82.10;;;;;;5096080;28;20007;-62
2024/03/20 02:41:12;;;;;;;;;;;7.30;82.00;;;;;;5098301;28;19979;-61
2024/03/20 02:43:45;;;;;;;;;;;7.30;82.10;;;;;;5096233;28;19928;-59
2024/03/20 02:46:12;;;;;;;;;;;7.30;82.00;;;;;;5099149;28;19939;-60
2024/03/20 02:48:45;;;;;;;;;;;7.40;82.10;;;;;;5100273;28;19995;-60
2024/03/20 02:51:18;;;;;;;;;;;7.30;82.20;;;;;;5099378;28;19927;-61
2024/03/20 02:53:52;;;;;;;;;;;7.30;82.40;;;;;;5098606;28;19928;-61
2024/03/20 02:56:26;;;;;;;;;;;7.30;82.30;;;;;;5098350;28;19924;-62
2024/03/20 02:58:59;;;;;;;;;;;7.30;82.40;;;;;;5098239;28;19970;-61
2024/03/20 03:01:32;;;;;;;;;;;7.30;82.30;;;;;;5097062;28;19938;-60
2024/03/20 03:04:05;;;;;;;;;;;7.30;82.30;;;;;;5095772;28;19931;-61
2024/03/20 03:06:38;;;;;;;;;;;7.30;82.40;;;;;;5098869;28;19932;-61
2024/03/20 03:09:19;;;;;;;;;;;7.30;82.50;;;;;;5097877;28;19930;-60
2024/03/20 03:11:53;;;;;;;;;;;7.30;82.50;;;;;;5097702;28;19977;-60
2024/03/20 03:14:26;;;;;;;;;;;7.20;82.60;;;;;;5097546;28;19946;-62
2024/03/20 03:16:59;;;;;;;;;;;7.30;82.60;;;;;;5097130;28;19934;-60
2024/03/20 03:19:32;;;;;;;;;;;7.20;82.60;;;;;;5099106;28;19932;-61
2024/03/20 03:22:05;;;;;;;;;;;7.20;82.60;;;;;;5095277;28;19931;-61
2024/03/20 03:24:39;;;;;;;;;;;7.20;82.50;;;;;;5095356;28;19977;-61
2024/03/20 03:27:13;;;;;;;;;;;7.10;82.60;;;;;;5097019;28;19948;-61
2024/03/20 03:29:46;;;;;;;;;;;7.10;82.70;;;;;;5098728;28;19923;-61
2024/03/20 03:32:19;;;;;;;;;;;7.10;82.70;;;;;;5097230;28;20371;-65
2024/03/20 03:34:52;;;;;;;;;;;7.00;82.60;;;;;;5097665;28;20180;-64
2024/03/20 03:37:25;;;;;;;;;;;7.00;82.60;;;;;;5099512;28;19945;-65
2024/03/20 03:40:00;;;;;;;;;;;7.00;82.70;;;;;;5096338;28;19934;-65
2024/03/20 03:42:33;;;;;;;;;;;7.00;82.70;;;;;;5097938;28;19943;-65
2024/03/20 03:45:06;;;;;;;;;;;7.00;82.60;;;;;;5098588;28;19928;-65
2024/03/20 03:47:40;;;;;;;;;;;7.00;82.60;;;;;;5099348;28;19935;-65
2024/03/20 03:50:13;;;;;;;;;;;7.00;82.50;;;;;;5097539;28;19924;-64
2024/03/20 03:52:47;;;;;;;;;;;7.00;82.50;;;;;;5095882;28;19928;-64
2024/03/20 03:55:21;;;;;;;;;;;6.90;82.60;;;;;;5098051;28;19924;-64
2024/03/20 03:57:55;;;;;;;;;;;6.90;82.60;;;;;;5095792;28;19931;-65
2024/03/20 04:00:30;;;;;;;;;;;6.90;82.60;;;;;;5096757;28;19923;-66
2024/03/20 04:03:03;;;;;;;;;;;6.90;82.60;;;;;;5098285;28;20404;-65
2024/03/20 04:05:36;;;;;;;;;;;6.90;82.60;;;;;;5097625;28;19932;-64
2024/03/20 04:08:03;;;;;;;;;;;6.90;82.80;;;;;;5097464;28;19931;-66
2024/03/20 04:10:39;;;;;;;;;;;6.90;82.80;;;;;;5094283;28;19924;-64
2024/03/20 04:13:12;;;;;;;;;;;6.90;82.70;;;;;;5096826;28;19939;-64
2024/03/20 04:15:45;;;;;;;;;;;6.90;82.70;;;;;;5092154;28;19932;-64
2024/03/20 04:18:18;;;;;;;;;;;6.90;82.70;;;;;;5090109;28;19936;-64
2024/03/20 04:20:51;;;;;;;;;;;6.80;82.60;;;;;;5095996;28;20031;-63
2024/03/20 04:23:24;;;;;;;;;;;6.80;82.60;;;;;;5089945;28;19928;-64
2024/03/20 04:25:58;;;;;;;;;;;6.80;82.70;;;;;;5096249;28;20386;-64
2024/03/20 04:28:32;;;;;;;;;;;6.70;83.10;;;;;;5098092;28;19930;-65
2024/03/20 04:31:05;;;;;;;;;;;6.80;83.10;;;;;;5098214;28;19984;-64
2024/03/20 04:33:38;;;;;;;;;;;6.80;82.90;;;;;;5097144;28;19930;-65
2024/03/20 04:36:12;;;;;;;;;;;6.80;83.10;;;;;;5098191;28;19924;-64
2024/03/20 04:38:46;;;;;;;;;;;6.70;83.10;;;;;;5097492;28;19927;-64
2024/03/20 04:41:22;;;;;;;;;;;6.70;83.10;;;;;;5094434;28;19959;-65
2024/03/20 04:43:55;;;;;;;;;;;6.70;83.10;;;;;;5095930;28;19943;-63
2024/03/20 04:46:28;;;;;;;;;;;6.70;83.10;;;;;;5097921;28;19928;-64
2024/03/20 04:49:01;;;;;;;;;;;6.70;83.20;;;;;;5097346;28;19935;-67
2024/03/20 04:51:34;;;;;;;;;;;6.70;83.20;;;;;;5097357;28;20022;-65
2024/03/20 04:54:07;;;;;;;;;;;6.70;83.10;;;;;;5095576;28;19927;-65
2024/03/20 04:56:37;;;;;;;;;;;6.70;83.20;;;;;;5096940;28;19965;-65
2024/03/20 04:59:10;;;;;;;;;;;6.70;83.20;;;;;;5074980;28;20519;-64
2024/03/20 05:01:58;;;;;;;;;;;6.70;83.20;;;;;;5095557;28;20537;-65
2024/03/20 05:04:32;;;;;;;;;;;6.70;83.20;;;;;;5099895;28;19924;-65
2024/03/20 05:07:05;;;;;;;;;;;6.60;83.30;;;;;;5101127;28;19946;-65
2024/03/20 05:09:39;;;;;;;;;;;6.70;83.30;;;;;;5101825;28;19923;-65
2024/03/20 05:12:13;;;;;;;;;;;6.60;83.20;;;;;;5100544;28;19932;-64
2024/03/20 05:14:47;;;;;;;;;;;6.70;83.30;;;;;;5111876;27;19947;-65
2024/03/20 05:17:20;;;;;;;;;;;6.60;83.30;;;;;;5096854;28;19964;-66
2024/03/20 05:19:53;;;;;;;;;;;6.60;83.30;;;;;;5098616;28;19935;-65
2024/03/20 05:22:26;;;;;;;;;;;6.60;83.20;;;;;;5100812;28;19931;-65
2024/03/20 05:24:58;;;;;;;;;;;6.60;83.20;;;;;;5094125;28;19985;-67
2024/03/20 05:27:33;;;;;;;;;;;6.60;83.30;;;;;;5099510;28;19924;-66
2024/03/20 05:30:07;;;;;;;;;;;6.60;83.20;;;;;;5098127;28;19973;-65
2024/03/20 05:32:54;;;;;;;;;;;6.60;83.20;;;;;;5098082;28;19928;-65
2024/03/20 05:35:26;;;;;;;;;;;6.60;83.20;;;;;;5099038;28;20079;-65
2024/03/20 05:37:59;;;;;;;;;;;6.50;83.30;;;;;;5095848;28;20024;-64
2024/03/20 05:40:31;;;;;;;;;;;6.50;83.30;;;;;;5100357;28;20219;-65
2024/03/20 05:43:06;;;;;;;;;;;6.50;83.30;;;;;;5097550;28;19927;-64
2024/03/20 05:45:39;;;;;;;;;;;6.50;83.30;;;;;;5096313;28;20421;-63
2024/03/20 05:48:12;;;;;;;;;;;6.50;83.40;;;;;;5096805;28;19928;-66
2024/03/20 05:50:44;;;;;;;;;;;6.50;83.40;;;;;;5097228;28;19969;-64
2024/03/20 05:53:18;;;;;;;;;;;6.50;83.50;;;;;;5099217;28;19928;-59
2024/03/20 05:55:51;;;;;;;;;;;6.50;83.50;;;;;;5100649;28;19930;-59
2024/03/20 05:58:26;;;;;;;;;;;6.60;83.50;;;;;;5099877;28;19931;-61
2024/03/20 06:00:58;;;;;;;;;;;6.50;83.60;;;;;;5099353;28;19936;-60
2024/03/20 06:03:31;;;;;;;;;;;6.60;83.60;;;;;;5097411;28;20359;-59
2024/03/20 06:06:03;;;;;;;;;;;6.50;83.90;;;;;;5096616;28;19973;-59
2024/03/20 06:08:36;;;;;;;;;;;6.60;83.90;;;;;;5097922;28;19931;-59
2024/03/20 06:11:08;;;;;;;;;;;6.60;83.90;;;;;;5098813;28;19924;-59
2024/03/20 06:13:42;;;;;;;;;;;6.70;83.90;;;;;;5097680;28;20744;-61
2024/03/20 06:16:22;;;;;;;;;;;6.70;83.90;;;;;;5097226;28;20581;-60
2024/03/20 06:18:55;;;;;;;;;;;6.80;83.80;;;;;;5097877;28;19924;-61
2024/03/20 06:21:27;;;;;;;;;;;6.80;83.80;;;;;;5097025;28;19924;-60
2024/03/20 06:24:01;;;;;;;;;;;6.90;83.70;;;;;;5095965;28;19931;-60
2024/03/20 06:26:42;;;;;;;;;;;6.90;83.80;;;;;;5093357;28;20400;-60
2024/03/20 06:29:16;;;;;;;;;;;6.80;83.90;;;;;;5097327;28;19927;-60
2024/03/20 06:31:50;;;;;;;;;;;6.70;84.30;;;;;;5090542;28;20846;-60
2024/03/20 06:34:23;;;;;;;;;;;6.70;84.70;;;;;;5096557;28;19932;-61
2024/03/20 06:36:55;;;;;;;;;;;6.70;85.10;;;;;;5099199;28;20022;-59
2024/03/20 06:39:22;;;;;;;;;;;6.80;84.70;;;;;;5098649;28;20010;-59
2024/03/20 06:41:54;;;;;;;;;;;6.90;84.50;;;;;;5093759;28;19940;-60
2024/03/20 06:44:28;;;;;;;;;;;7.00;84.20;;;;;;5098205;28;19928;-60
2024/03/20 06:47:01;;;;;;;;;;;7.10;84.00;;;;;;5096602;28;19924;-61
2024/03/20 06:49:34;;;;;;;;;;;7.10;84.00;;;;;;5098192;28;19924;-61
2024/03/20 06:52:06;;;;;;;;;;;7.20;84.00;;;;;;5093007;28;19969;-59
2024/03/20 06:54:42;;;;;;;;;;;7.20;83.70;;;;;;5096053;28;19927;-59
2024/03/20 06:57:15;;;;;;;;;;;7.30;83.50;;;;;;5097553;28;19928;-60
2024/03/20 06:59:49;;;;;;;;;;;7.30;83.60;;;;;;5096084;28;19935;-59
2024/03/20 07:02:23;;;;;;;;;;;7.40;83.50;;;;;;5097736;28;19993;-63
2024/03/20 07:05:02;;;;;;;;;;;7.40;83.40;;;;;;5098559;28;19924;-63
2024/03/20 07:08:01;;;;;;;;;;;7.50;83.10;;;;;;5094111;28;19974;-64
2024/03/20 07:10:33;;;;;;;;;;;7.60;83.10;;;;;;5098475;28;19924;-64
2024/03/20 07:13:00;;;;;;;;;;;7.60;83.80;;;;;;5095675;28;19953;-64
2024/03/20 07:15:36;;;;;;;;;;;7.70;83.20;;;;;;5096872;28;19988;-62
2024/03/20 07:18:09;;;;;;;;;;;7.70;83.50;;;;;;5097693;28;19928;-64
2024/03/20 07:20:42;;;;;;;;;;;7.70;83.70;;;;;;5098440;28;19924;-63
2024/03/20 07:23:16;;;;;;;;;;;7.80;83.20;;;;;;5096321;28;20374;-64
2024/03/20 07:25:49;;;;;;;;;;;7.70;83.30;;;;;;5090134;28;19924;-63
2024/03/20 07:28:21;;;;;;;;;;;7.80;83.60;;;;;;5093150;28;20381;-63
2024/03/20 07:34:08;;;;;;;;;;;7.90;84.40;;;;;;5033321;28;20357;-64
2024/03/20 07:36:40;;;;;;;;;;;8.00;83.70;;;;;;5035671;28;19932;-63
2024/03/20 07:39:13;;;;;;;;;;;8.10;84.50;;;;;;5034530;28;20300;-63
2024/03/20 07:41:45;;;;;;;;;;;8.20;84.40;;;;;;5032671;28;20390;-64
2024/03/20 07:44:18;;;;;;;;;;;8.20;84.30;;;;;;5033827;28;19929;-64
2024/03/20 07:46:45;;;;;;;;;;;8.30;85.10;;;;;;5033962;28;19935;-64
2024/03/20 07:49:19;;;;;;;;;;;8.50;85.00;;;;;;5032983;28;20423;-64
2024/03/20 07:51:51;;;;;;;;;;;8.60;85.20;;;;;;5035504;28;20015;-64
2024/03/20 07:54:23;;;;;;;;;;;8.70;85.50;;;;;;5033361;28;20016;-64
2024/03/20 07:56:56;;;;;;;;;;;8.80;85.70;;;;;;5033881;28;19934;-65
2024/03/20 07:59:29;;;;;;;;;;;9.00;85.40;;;;;;5034072;28;19926;-63
2024/03/20 08:02:03;;;;;;;;;;;9.10;85.60;;;;;;5034248;28;19925;-63
2024/03/20 08:04:38;;;;;;;;;;;9.20;85.40;;;;;;5033395;28;20048;-65
2024/03/20 08:07:11;;;;;;;;;;;9.40;85.50;;;;;;5032991;28;19940;-64
2024/03/20 08:09:46;;;;;;;;;;;9.60;85.70;;;;;;5034162;28;19936;-64
2024/03/20 08:12:18;;;;;;;;;;;9.70;85.40;;;;;;5032925;28;19933;-74
2024/03/20 08:14:52;;;;;;;;;;;9.80;85.30;;;;;;5032214;28;19933;-74
2024/03/20 08:17:26;;;;;;;;;;;10.00;85.00;;;;;;5034237;28;20063;-73
2024/03/20 08:19:59;;;;;;;;;;;10.10;85.10;;;;;;5035286;28;20020;-73
2024/03/20 08:22:31;;;;;;;;;;;10.20;84.80;;;;;;5033402;28;19925;-72
2024/03/20 08:25:04;;;;;;;;;;;10.30;84.60;;;;;;5033964;28;19939;-74
2024/03/20 08:27:37;;;;;;;;;;;10.40;84.50;;;;;;5032889;28;19925;-73
2024/03/20 08:30:13;;;;;;;;;;;10.50;84.50;;;;;;5035009;28;19952;-72
2024/03/20 08:32:47;;;;;;;;;;;10.60;84.30;;;;;;5034967;28;19971;-73
2024/03/20 08:35:20;;;;;;;;;;;10.70;84.00;;;;;;5018133;28;19925;-72
2024/03/20 08:37:52;;;;;;;;;;;10.80;83.90;;;;;;5033332;28;20056;-74
2024/03/20 08:40:25;;;;;;;;;;;10.90;83.60;;;;;;5032845;28;19928;-74
2024/03/20 08:42:58;;;;;;;;;;;11.10;83.50;;;;;;5032397;28;19928;-76
2024/03/20 08:45:31;;;;;;;;;;;11.20;83.10;;;;;;5033412;28;20016;-74
2024/03/20 08:48:06;;;;;;;;;;;11.40;82.50;;;;;;5034449;28;19963;-73
2024/03/20 08:50:40;;;;;;;;;;;11.60;82.00;;;;;;5032422;28;19959;-73
2024/03/20 08:53:12;;;;;;;;;;;11.70;81.80;;;;;;5034452;28;19929;-73
2024/03/20 08:55:45;;;;;;;;;;;11.80;81.70;;;;;;5032244;28;20010;-74
2024/03/20 08:58:17;;;;;;;;;;;11.90;81.20;;;;;;5033402;28;19925;-73
2024/03/20 09:00:50;;;;;;;;;;;12.10;81.00;;;;;;5030615;28;20347;-73
2024/03/20 09:03:23;;;;;;;;;;;12.30;80.40;;;;;;5033575;28;20020;-72
2024/03/20 09:05:57;;;;;;;;;;;12.50;80.00;;;;;;5035317;28;20290;-77
2024/03/20 09:08:29;;;;;;;;;;;12.60;79.70;;;;;;5032859;28;19963;-73
2024/03/20 09:11:02;;;;;;;;;;;12.80;79.20;;;;;;5032289;28;19925;-72
2024/03/20 09:13:34;;;;;;;;;;;12.90;79.10;;;;;;5033818;28;19983;-74
2024/03/20 09:16:08;;;;;;;;;;;13.10;78.50;;;;;;5032187;28;19932;-76
2024/03/20 09:18:41;;;;;;;;;;;13.20;77.90;;;;;;5033418;28;20430;-73
2024/03/20 09:21:15;;;;;;;;;;;13.40;77.70;;;;;;5033900;28;19932;-74
2024/03/20 09:23:47;;;;;;;;;;;13.60;77.10;;;;;;5016747;28;19925;-61
2024/03/20 09:26:20;;;;;;;;;;;13.70;76.30;;;;;;5029850;28;20033;-61
2024/03/20 09:28:52;;;;;;;;;;;13.80;75.80;;;;;;5028017;28;20050;-61
2024/03/20 09:31:25;;;;;;;;;;;14.00;75.60;;;;;;5033225;28;20704;-60
2024/03/20 09:33:59;;;;;;;;;;;14.10;75.60;;;;;;5033994;28;19932;-61
2024/03/20 09:36:32;;;;;;;;;;;14.20;75.10;;;;;;5032465;28;19925;-60
2024/03/20 09:39:10;;;;;;;;;;;14.30;75.40;;;;;;5033663;28;19932;-60
2024/03/20 09:41:46;;;;;;;;;;;14.40;74.90;;;;;;5033541;28;19924;-61
2024/03/20 09:44:19;;;;;;;;;;;14.50;74.80;;;;;;5015748;28;21049;-61
2024/03/20 09:46:51;;;;;;;;;;;14.60;74.90;;;;;;5028273;28;20003;-61
2024/03/20 09:49:26;;;;;;;;;;;14.70;74.80;;;;;;5033716;28;20011;-62
2024/03/20 09:51:59;;;;;;;;;;;14.80;74.10;;;;;;5037084;28;19931;-61
2024/03/20 09:54:32;;;;;;;;;;;14.90;73.60;;;;;;5037438;28;19972;-61
2024/03/20 09:57:05;;;;;;;;;;;15.00;73.10;;;;;;5037071;28;19983;-61
2024/03/20 09:59:38;;;;;;;;;;;15.10;73.10;;;;;;5036030;28;20349;-61
2024/03/20 10:02:11;;;;;;;;;;;15.30;72.50;;;;;;5096305;28;19924;-61
2024/03/20 10:04:46;;;;;;;;;;;15.40;72.60;;;;;;5099338;28;19928;-60
2024/03/20 10:07:18;;;;;;;;;;;15.50;72.80;;;;;;5096822;28;19961;-61
2024/03/20 10:09:51;;;;;;;;;;;15.70;72.00;;;;;;5100131;28;19932;-62
2024/03/20 10:12:24;;;;;;;;;;;15.70;71.40;;;;;;5098815;28;19960;-61
2024/03/20 10:14:57;;;;;;;;;;;15.80;71.00;;;;;;5097881;28;20228;-62
2024/03/20 10:17:32;;;;;;;;;;;15.80;70.30;;;;;;5099322;28;20339;-61
2024/03/20 10:20:26;;;;;;;;;;;16.00;70.50;;;;;;5091630;28;19935;-61
2024/03/20 10:23:02;;;;;;;;;;;16.10;70.00;;;;;;5095847;28;19927;-61
2024/03/20 10:25:35;;;;;;;;;;;16.10;69.90;;;;;;5099771;28;20393;-61
2024/03/20 10:28:11;;;;;;;;;;;16.20;69.30;;;;;;5097560;28;19984;-61
2024/03/20 10:30:44;;;;;;;;;;;16.20;69.30;;;;;;5095875;28;19932;-61
2024/03/20 10:33:18;;;;;;;;;;;16.20;69.90;;;;;;5098094;28;19959;-62
2024/03/20 10:36:09;;;;;;;;;;;16.10;69.90;;;;;;5099833;28;19924;-60
2024/03/20 10:38:43;;;;;;;;;;;16.20;69.40;;;;;;5094871;28;20015;-60
2024/03/20 10:41:16;;;;;;;;;;;16.20;69.00;;;;;;5096321;28;20009;-60
2024/03/20 10:43:49;;;;;;;;;;;16.30;69.40;;;;;;5098475;28;19940;-60
2024/03/20 10:46:22;;;;;;;;;;;16.40;69.20;;;;;;5090208;28;19930;-62
2024/03/20 10:48:55;;;;;;;;;;;16.40;69.00;;;;;;5097851;28;19932;-61
2024/03/20 10:51:29;;;;;;;;;;;16.50;68.60;;;;;;5097063;28;19931;-61
2024/03/20 10:54:03;;;;;;;;;;;16.60;68.70;;;;;;5097876;28;19934;-61
2024/03/20 10:56:42;;;;;;;;;;;16.60;68.30;;;;;;5096963;28;19981;-62
2024/03/20 10:59:16;;;;;;;;;;;16.70;68.30;;;;;;5097488;28;19923;-61
2024/03/20 11:01:59;;;;;;;;;;;16.80;67.90;;;;;;5095926;28;19925;-61
2024/03/20 11:04:36;;;;;;;;;;;16.90;67.40;;;;;;5098437;28;20397;-61
2024/03/20 11:07:28;;;;;;;;;;;17.10;67.00;;;;;;5098143;28;19923;-61
2024/03/20 11:10:17;;;;;;;;;;;17.10;66.40;;;;;;5089070;28;19974;-61
2024/03/20 11:12:54;;;;;;;;;;;17.10;66.30;;;;;;5091854;28;20550;-60
2024/03/20 11:15:27;;;;;;;;;;;17.20;65.40;;;;;;5093651;28;20051;-62
2024/03/20 11:18:01;;;;;;;;;;;17.20;66.10;;;;;;5097113;28;20272;-61
2024/03/20 11:20:41;;;;;;;;;;;17.30;65.50;;;;;;5097608;28;20324;-61
2024/03/20 11:23:22;;;;;;;;;;;17.20;65.40;;;;;;5113185;27;19985;-61
2024/03/20 11:25:56;;;;;;;;;;;17.10;65.60;;;;;;5097557;28;20000;-61
2024/03/20 11:28:29;;;;;;;;;;;17.10;65.40;;;;;;5095957;28;19928;-60
2024/03/20 11:31:01;;;;;;;;;;;17.00;65.40;;;;;;5095139;28;19923;-61
2024/03/20 11:33:36;;;;;;;;;;;17.00;65.60;;;;;;5097683;28;20271;-62
2024/03/20 11:36:12;;;;;;;;;;;17.00;65.70;;;;;;5096133;28;20027;-61
2024/03/20 11:38:45;;;;;;;;;;;16.90;65.10;;;;;;5097487;28;20506;-62
2024/03/20 11:41:19;;;;;;;;;;;16.90;64.60;;;;;;5096534;28;19934;-61
2024/03/20 11:43:52;;;;;;;;;;;17.10;65.00;;;;;;5097506;28;20340;-61
2024/03/20 11:46:24;;;;;;;;;;;17.10;65.00;;;;;;5090840;28;20017;-62
2024/03/20 11:48:57;;;;;;;;;;;17.10;65.30;;;;;;5096620;28;19959;-62
2024/03/20 11:51:30;;;;;;;;;;;17.10;66.00;;;;;;5097129;28;19925;-60
2024/03/20 11:54:04;;;;;;;;;;;17.10;65.20;;;;;;5096978;28;19935;-60
2024/03/20 11:56:40;;;;;;;;;;;17.10;65.10;;;;;;5096303;28;19928;-60
2024/03/20 11:59:12;;;;;;;;;;;17.20;65.70;;;;;;5087879;28;19929;-62
2024/03/20 12:01:54;;;;;;;;;;;17.20;65.00;;;;;;5091873;28;19935;-61
2024/03/20 12:04:26;;;;;;;;;;;17.20;65.50;;;;;;5089677;28;19932;-62
2024/03/20 12:06:59;;;;;;;;;;;17.30;65.10;;;;;;5095468;28;19995;-62
2024/03/20 12:09:32;;;;;;;;;;;17.40;65.40;;;;;;5096320;28;20014;-61
2024/03/20 12:12:34;;;;;;;;;;;17.40;65.40;;;;;;5096335;28;20006;-68
2024/03/20 12:15:09;;;;;;;;;;;17.40;65.30;;;;;;5061936;28;19923;-67
2024/03/20 12:17:49;;;;;;;;;;;17.40;65.10;;;;;;5096689;28;19928;-68
2024/03/20 12:20:23;;;;;;;;;;;17.40;64.30;;;;;;5095116;28;19958;-68
2024/03/20 12:23:07;;;;;;;;;;;17.40;64.60;;;;;;5095522;28;19928;-68
2024/03/20 12:26:05;;;;;;;;;;;17.40;64.90;;;;;;5091178;28;20496;-69
2024/03/20 12:28:39;;;;;;;;;;;17.50;64.50;;;;;;5098621;28;19946;-68
2024/03/20 12:31:15;;;;;;;;;;;17.50;65.00;;;;;;5096882;28;19936;-67
2024/03/20 12:34:03;;;;;;;;;;;17.60;64.40;;;;;;5091992;28;21337;-67
2024/03/20 12:36:42;;;;;;;;;;;17.60;64.60;;;;;;5096088;28;19938;-68
2024/03/20 12:39:44;;;;;;;;;;;17.60;64.80;;;;;;5097569;28;19953;-69
2024/03/20 12:42:16;;;;;;;;;;;17.70;65.20;;;;;;5097640;28;19931;-68
2024/03/20 12:44:50;;;;;;;;;;;17.70;65.70;;;;;;5098469;28;19928;-69
2024/03/20 12:47:24;;;;;;;;;;;17.80;65.20;;;;;;5096772;28;19931;-67
2024/03/20 12:49:57;;;;;;;;;;;17.70;64.40;;;;;;5094936;28;20027;-67
2024/03/20 12:52:29;;;;;;;;;;;17.70;64.60;;;;;;5097089;28;19935;-67
2024/03/20 12:55:03;;;;;;;;;;;17.80;65.60;;;;;;5097613;28;19924;-67
2024/03/20 12:57:38;;;;;;;;;;;17.80;64.50;;;;;;5097220;28;19928;-67
2024/03/20 13:00:11;;;;;;;;;;;17.80;64.10;;;;;;5097715;28;19924;-67
2024/03/20 13:02:46;;;;;;;;;;;17.80;64.90;;;;;;5097572;28;19971;-67
2024/03/20 13:05:19;;;;;;;;;;;17.90;64.80;;;;;;5096785;28;19932;-68
2024/03/20 13:07:54;;;;;;;;;;;17.90;63.90;;;;;;5096163;28;20031;-68
2024/03/20 13:10:26;;;;;;;;;;;17.90;63.70;;;;;;5096205;28;19931;-68
2024/03/20 13:13:04;;;;;;;;;;;17.90;64.20;;;;;;5096310;28;19924;-67
2024/03/20 13:15:40;;;;;;;;;;;17.90;65.10;;;;;;5091871;28;19939;-67
2024/03/20 13:18:27;;;;;;;;;;;18.00;65.40;;;;;;5093401;28;21015;-68
2024/03/20 13:21:01;;;;;;;;;;;18.00;64.50;;;;;;5094964;28;20381;-68
2024/03/20 13:23:34;;;;;;;;;;;18.10;64.70;;;;;;5096940;28;19928;-61
2024/03/20 13:26:07;;;;;;;;;;;18.10;64.40;;;;;;5099564;28;19928;-62
2024/03/20 13:28:43;;;;;;;;;;;18.00;64.50;;;;;;5100959;28;19977;-61
2024/03/20 13:31:15;;;;;;;;;;;18.10;64.60;;;;;;5097298;28;20030;-61
2024/03/20 13:33:50;;;;;;;;;;;18.10;65.60;;;;;;5098962;28;19924;-61
2024/03/20 13:36:23;;;;;;;;;;;18.10;64.80;;;;;;5098111;28;19924;-63
2024/03/20 13:39:08;;;;;;;;;;;18.10;65.10;;;;;;5100801;28;19927;-62
2024/03/20 13:41:47;;;;;;;;;;;18.10;64.80;;;;;;5097846;28;19924;-61
2024/03/20 13:44:23;;;;;;;;;;;18.10;64.00;;;;;;5098683;28;20027;-61
2024/03/20 13:46:55;;;;;;;;;;;18.10;64.30;;;;;;5099133;28;20645;-61
2024/03/20 13:49:30;;;;;;;;;;;18.10;64.40;;;;;;5099139;28;19932;-60
2024/03/20 13:52:03;;;;;;;;;;;18.10;63.60;;;;;;5097758;28;19955;-60
2024/03/20 13:54:36;;;;;;;;;;;18.00;62.80;;;;;;5100271;28;20019;-61
2024/03/20 13:57:11;;;;;;;;;;;18.10;63.60;;;;;;5098506;28;20294;-61
2024/03/20 13:59:45;;;;;;;;;;;18.00;63.10;;;;;;5098864;28;20366;-61
2024/03/20 14:02:26;;;;;;;;;;;18.00;62.90;;;;;;5098826;28;20114;-61
2024/03/20 14:05:03;;;;;;;;;;;18.10;62.90;;;;;;5080636;28;20310;-62
2024/03/20 14:07:35;;;;;;;;;;;18.10;62.30;;;;;;5098523;28;19928;-61
2024/03/20 14:10:16;;;;;;;;;;;18.10;63.70;;;;;;5098311;28;19927;-60
2024/03/20 14:12:49;;;;;;;;;;;18.10;63.50;;;;;;5098756;28;20539;-61
2024/03/20 14:15:23;;;;;;;;;;;18.10;64.10;;;;;;5097444;28;19928;-61
2024/03/20 14:17:56;;;;;;;;;;;18.10;62.50;;;;;;5098454;28;20520;-61
2024/03/20 14:20:31;;;;;;;;;;;18.10;63.10;;;;;;5097648;28;19966;-61
2024/03/20 14:22:56;;;;;;;;;;;18.10;63.60;;;;;;5098382;28;19951;-61
2024/03/20 14:25:34;;;;;;;;;;;18.00;62.90;;;;;;5098425;28;19923;-62
2024/03/20 14:28:07;;;;;;;;;;;18.00;63.30;;;;;;5079038;28;19936;-62
2024/03/20 14:30:41;;;;;;;;;;;17.90;63.00;;;;;;5099393;28;19943;-62
2024/03/20 14:33:13;;;;;;;;;;;17.90;63.20;;;;;;5097799;28;19928;-60
2024/03/20 14:35:51;;;;;;;;;;;17.90;63.50;;;;;;5096697;28;19935;-60
2024/03/20 14:38:35;;;;;;;;;;;17.90;62.80;;;;;;5097175;28;19974;-58
2024/03/20 14:41:12;;;;;;;;;;;17.90;62.70;;;;;;5098829;28;19930;-59
2024/03/20 14:43:46;;;;;;;;;;;17.80;62.80;;;;;;5098924;28;20015;-58
2024/03/20 14:46:22;;;;;;;;;;;17.90;62.00;;;;;;5097210;28;19935;-58
2024/03/20 14:48:54;;;;;;;;;;;17.90;62.40;;;;;;5098338;28;19946;-60
2024/03/20 14:51:29;;;;;;;;;;;17.90;63.10;;;;;;5097768;28;19966;-59
2024/03/20 14:54:02;;;;;;;;;;;17.80;63.20;;;;;;5097530;28;20330;-60
2024/03/20 14:56:36;;;;;;;;;;;17.80;64.30;;;;;;5099211;28;19935;-60
2024/03/20 14:59:09;;;;;;;;;;;17.80;64.10;;;;;;5096815;28;20290;-60
2024/03/20 15:01:42;;;;;;;;;;;17.80;63.40;;;;;;5098524;28;19924;-59
2024/03/20 15:04:14;;;;;;;;;;;17.80;63.00;;;;;;5097405;28;19927;-60
2024/03/20 15:06:49;;;;;;;;;;;17.80;62.80;;;;;;5098037;28;19928;-60
2024/03/20 15:09:23;;;;;;;;;;;17.70;63.70;;;;;;5097392;28;20386;-59